KLIC/LIC METAR and TAF weather

Enter ICAO airport designator
Station Type Date Time Source
KLIC METAR 2019/12/08 23:55 UTC NOAA

KLIC 082355Z AUTO 00000KT 10SM CLR 03/M03 A2965 RMK AO2 SLP042 T00331028 10106 20033 56009


Station Type Date Time Source
KLIC Decoded METAR 2019/12/08 23:55 UTC NOAA

LIMON MUNICIPAL AIRPORT, CO, United States (KLIC) 39-16N 103-40W 1630M
Dec 08, 2019 - 06:55 PM EST / 2019.12.08 2355 UTC
Wind: Calm:0
Visibility: 10 mile(s):0
Sky conditions: clear
Temperature: 37.9 F (3.3 C)
Dew Point: 27.0 F (-2.8 C)
Relative Humidity: 64%
Pressure (altimeter): 29.65 in. Hg (1004 hPa)
Pressure tendency: 0.03 inches (0.9 hPa) lower than three hours ago
ob: KLIC 082355Z AUTO 00000KT 10SM CLR 03/M03 A2965 RMK AO2 SLP042 T00331028 10106 20033 56009
cycle: 0

Station Type Date Time Source
KLIC TAF UTC NOAA

Error!

Example: see airport list